To NAV CANADA Home Page Login to a new session Search on AWWS site Disclaimer Vers la page française équivalente Tips FAQ What's new on the site To the Forecasts and Observations / NOTAM section To "File a Flight Plan" website Publications and other links Update of the User's profile FIC Telephone Numbers My Weather Data Folder Route Weather Data Regional Weather Data Local Weather Data To the Forecasts and Observations / NOTAM section
Request Generated 03/19/2019 at 23:41:13 UTC . Weather information available at that time is displayed.

METAR/TAF

STEPHENVILLE/NL    

METAR CYJT 192300Z 24007KT 15SM OVC022 M05/M07 A3019 RMK SC8 SLP227=
METAR CYJT 192200Z 23009KT 15SM SCT014 BKN030 BKN090 M05/M08 A3018 RMK SC3SC2AS2 SLP222=
METAR CYJT 192100Z 23009KT 15SM OVC030 M05/M08 A3017 RMK SC8 SLP220=

TAF CYJT 191740Z 1918/2018 24015KT P6SM FEW020 OVC030 TEMPO 1918/2003
5SM -SHSN BKN015 OVC030 PROB30 1920/2003 2SM -SHSN OVC010
FM200300 VRB03KT P6SM SCT015 BKN070
FM200700 24005KT P6SM BKN020 OVC070
FM201200 25008KT P6SM SCT030
BECMG 2014/2016 24015KT
FM201700 24018G28KT P6SM BKN025
RMK NXT FCST BY 200000Z=
Your time UTC time
Weather data provided by Environment Canada and NAV CANADA